sensor_id;sensor_type;location;lat;lon;timestamp;P1;durP1;ratioP1;P2;durP2;ratioP2
3131;SDS011;62090;52.330;9.104;2023-04-15T00:01:17;6.77;;;5.30;;
3131;SDS011;62090;52.330;9.104;2023-04-15T00:03:51;7.90;;;5.73;;
3131;SDS011;62090;52.330;9.104;2023-04-15T00:06:23;8.17;;;6.70;;
3131;SDS011;62090;52.330;9.104;2023-04-15T00:08:53;7.07;;;5.13;;
3131;SDS011;62090;52.330;9.104;2023-04-15T00:11:22;7.87;;;6.17;;
3131;SDS011;62090;52.330;9.104;2023-04-15T00:13:52;7.30;;;6.30;;
3131;SDS011;62090;52.330;9.104;2023-04-15T00:16:22;8.20;;;6.07;;
3131;SDS011;62090;52.330;9.104;2023-04-15T00:18:55;11.47;;;7.20;;
3131;SDS011;62090;52.330;9.104;2023-04-15T00:21:25;7.03;;;6.33;;
3131;SDS011;62090;52.330;9.104;2023-04-15T00:23:55;10.07;;;6.10;;
3131;SDS011;62090;52.330;9.104;2023-04-15T00:26:25;9.33;;;6.70;;
3131;SDS011;62090;52.330;9.104;2023-04-15T00:28:55;7.83;;;5.50;;
3131;SDS011;62090;52.330;9.104;2023-04-15T00:31:25;6.57;;;5.87;;
3131;SDS011;62090;52.330;9.104;2023-04-15T00:33:57;7.80;;;5.30;;
3131;SDS011;62090;52.330;9.104;2023-04-15T00:36:28;10.30;;;6.70;;
3131;SDS011;62090;52.330;9.104;2023-04-15T00:38:59;7.80;;;6.07;;
3131;SDS011;62090;52.330;9.104;2023-04-15T00:41:29;7.00;;;6.20;;
3131;SDS011;62090;52.330;9.104;2023-04-15T00:44:00;6.80;;;5.60;;
3131;SDS011;62090;52.330;9.104;2023-04-15T00:46:30;6.50;;;5.60;;
3131;SDS011;62090;52.330;9.104;2023-04-15T00:49:06;5.70;;;5.10;;
3131;SDS011;62090;52.330;9.104;2023-04-15T00:51:37;7.63;;;5.33;;
3131;SDS011;62090;52.330;9.104;2023-04-15T00:54:07;7.70;;;5.93;;
3131;SDS011;62090;52.330;9.104;2023-04-15T00:56:37;6.80;;;6.10;;
3131;SDS011;62090;52.330;9.104;2023-04-15T00:59:07;9.80;;;6.30;;
3131;SDS011;62090;52.330;9.104;2023-04-15T01:01:37;8.60;;;5.73;;
3131;SDS011;62090;52.330;9.104;2023-04-15T01:04:10;7.10;;;5.70;;
3131;SDS011;62090;52.330;9.104;2023-04-15T01:06:40;8.97;;;6.77;;
3131;SDS011;62090;52.330;9.104;2023-04-15T01:09:10;9.90;;;6.20;;
3131;SDS011;62090;52.330;9.104;2023-04-15T01:11:40;7.60;;;6.20;;
3131;SDS011;62090;52.330;9.104;2023-04-15T01:14:10;9.10;;;6.03;;
3131;SDS011;62090;52.330;9.104;2023-04-15T01:16:40;8.33;;;6.23;;
3131;SDS011;62090;52.330;9.104;2023-04-15T01:19:13;7.77;;;5.53;;
3131;SDS011;62090;52.330;9.104;2023-04-15T01:21:45;7.70;;;6.20;;
3131;SDS011;62090;52.330;9.104;2023-04-15T01:24:16;6.97;;;6.27;;
3131;SDS011;62090;52.330;9.104;2023-04-15T01:26:50;8.20;;;7.10;;
3131;SDS011;62090;52.330;9.104;2023-04-15T01:29:19;8.03;;;6.23;;
3131;SDS011;62090;52.330;9.104;2023-04-15T01:31:49;9.73;;;6.90;;
3131;SDS011;62090;52.330;9.104;2023-04-15T01:34:39;8.17;;;6.40;;
3131;SDS011;62090;52.330;9.104;2023-04-15T01:37:27;12.07;;;6.57;;
3131;SDS011;62090;52.330;9.104;2023-04-15T01:39:57;9.50;;;7.00;;
3131;SDS011;62090;52.330;9.104;2023-04-15T01:42:30;12.03;;;6.27;;
3131;SDS011;62090;52.330;9.104;2023-04-15T01:45:01;10.10;;;7.47;;
3131;SDS011;62090;52.330;9.104;2023-04-15T01:47:32;9.93;;;6.53;;
3131;SDS011;62090;52.330;9.104;2023-04-15T01:50:03;9.40;;;6.77;;
3131;SDS011;62090;52.330;9.104;2023-04-15T01:52:35;9.27;;;7.10;;
3131;SDS011;62090;52.330;9.104;2023-04-15T01:55:07;8.00;;;7.07;;
3131;SDS011;62090;52.330;9.104;2023-04-15T01:57:41;12.10;;;7.07;;
3131;SDS011;62090;52.330;9.104;2023-04-15T02:00:13;10.73;;;7.27;;
3131;SDS011;62090;52.330;9.104;2023-04-15T02:02:44;9.17;;;7.00;;
3131;SDS011;62090;52.330;9.104;2023-04-15T02:05:16;11.30;;;6.30;;
3131;SDS011;62090;52.330;9.104;2023-04-15T02:07:47;11.00;;;7.30;;
3131;SDS011;62090;52.330;9.104;2023-04-15T02:10:18;11.63;;;8.37;;
3131;SDS011;62090;52.330;9.104;2023-04-15T02:12:52;9.90;;;8.17;;
3131;SDS011;62090;52.330;9.104;2023-04-15T02:15:27;10.23;;;7.67;;
3131;SDS011;62090;52.330;9.104;2023-04-15T02:17:58;14.07;;;7.93;;
3131;SDS011;62090;52.330;9.104;2023-04-15T02:20:29;12.03;;;7.70;;
3131;SDS011;62090;52.330;9.104;2023-04-15T02:23:01;10.23;;;8.27;;
3131;SDS011;62090;52.330;9.104;2023-04-15T02:25:34;9.30;;;6.97;;
3131;SDS011;62090;52.330;9.104;2023-04-15T02:28:08;16.07;;;8.10;;
3131;SDS011;62090;52.330;9.104;2023-04-15T02:30:39;10.83;;;9.00;;
3131;SDS011;62090;52.330;9.104;2023-04-15T02:33:10;9.23;;;7.93;;
3131;SDS011;62090;52.330;9.104;2023-04-15T02:35:41;11.73;;;7.90;;
3131;SDS011;62090;52.330;9.104;2023-04-15T02:38:13;10.37;;;8.57;;
3131;SDS011;62090;52.330;9.104;2023-04-15T02:40:44;9.50;;;7.87;;
3131;SDS011;62090;52.330;9.104;2023-04-15T02:43:19;15.13;;;9.10;;
3131;SDS011;62090;52.330;9.104;2023-04-15T02:45:52;9.13;;;8.20;;
3131;SDS011;62090;52.330;9.104;2023-04-15T02:48:23;10.87;;;8.10;;
3131;SDS011;62090;52.330;9.104;2023-04-15T02:51:09;12.97;;;9.43;;
3131;SDS011;62090;52.330;9.104;2023-04-15T02:53:40;13.03;;;9.80;;
3131;SDS011;62090;52.330;9.104;2023-04-15T02:56:12;12.53;;;8.97;;
3131;SDS011;62090;52.330;9.104;2023-04-15T02:58:47;12.90;;;9.03;;
3131;SDS011;62090;52.330;9.104;2023-04-15T03:01:19;13.03;;;9.43;;
3131;SDS011;62090;52.330;9.104;2023-04-15T03:03:50;14.60;;;11.00;;
3131;SDS011;62090;52.330;9.104;2023-04-15T03:06:21;15.70;;;11.07;;
3131;SDS011;62090;52.330;9.104;2023-04-15T03:08:52;13.97;;;10.33;;
3131;SDS011;62090;52.330;9.104;2023-04-15T03:11:23;15.13;;;11.03;;
3131;SDS011;62090;52.330;9.104;2023-04-15T03:13:57;14.63;;;11.63;;
3131;SDS011;62090;52.330;9.104;2023-04-15T03:16:33;13.47;;;10.50;;
3131;SDS011;62090;52.330;9.104;2023-04-15T03:19:04;14.60;;;11.10;;
3131;SDS011;62090;52.330;9.104;2023-04-15T03:21:35;16.67;;;12.00;;
3131;SDS011;62090;52.330;9.104;2023-04-15T03:24:06;15.83;;;10.70;;
3131;SDS011;62090;52.330;9.104;2023-04-15T03:26:37;15.90;;;11.43;;
3131;SDS011;62090;52.330;9.104;2023-04-15T03:29:17;15.13;;;11.57;;
3131;SDS011;62090;52.330;9.104;2023-04-15T03:31:48;13.37;;;10.50;;
3131;SDS011;62090;52.330;9.104;2023-04-15T03:34:19;13.73;;;11.10;;
3131;SDS011;62090;52.330;9.104;2023-04-15T03:36:50;16.50;;;11.37;;
3131;SDS011;62090;52.330;9.104;2023-04-15T03:39:21;16.57;;;12.03;;
3131;SDS011;62090;52.330;9.104;2023-04-15T03:41:52;14.37;;;12.27;;
3131;SDS011;62090;52.330;9.104;2023-04-15T03:44:27;17.50;;;12.47;;
3131;SDS011;62090;52.330;9.104;2023-04-15T03:46:59;17.37;;;12.83;;
3131;SDS011;62090;52.330;9.104;2023-04-15T03:49:30;19.30;;;13.10;;
3131;SDS011;62090;52.330;9.104;2023-04-15T03:52:01;17.80;;;13.77;;
3131;SDS011;62090;52.330;9.104;2023-04-15T03:54:32;18.10;;;13.77;;
3131;SDS011;62090;52.330;9.104;2023-04-15T03:57:03;16.70;;;12.23;;
3131;SDS011;62090;52.330;9.104;2023-04-15T03:59:37;16.90;;;12.93;;
3131;SDS011;62090;52.330;9.104;2023-04-15T04:02:08;21.83;;;14.33;;
3131;SDS011;62090;52.330;9.104;2023-04-15T04:04:39;22.47;;;15.40;;
3131;SDS011;62090;52.330;9.104;2023-04-15T04:07:13;23.03;;;16.67;;
3131;SDS011;62090;52.330;9.104;2023-04-15T04:09:45;25.80;;;15.77;;
3131;SDS011;62090;52.330;9.104;2023-04-15T04:12:16;20.70;;;16.00;;
3131;SDS011;62090;52.330;9.104;2023-04-15T04:14:50;22.17;;;15.47;;
3131;SDS011;62090;52.330;9.104;2023-04-15T04:17:21;21.17;;;16.60;;
3131;SDS011;62090;52.330;9.104;2023-04-15T04:19:52;25.60;;;16.70;;
3131;SDS011;62090;52.330;9.104;2023-04-15T04:22:23;23.63;;;17.37;;
3131;SDS011;62090;52.330;9.104;2023-04-15T04:24:54;20.50;;;16.90;;
3131;SDS011;62090;52.330;9.104;2023-04-15T04:27:26;23.53;;;16.73;;
3131;SDS011;62090;52.330;9.104;2023-04-15T04:29:59;22.97;;;17.57;;
3131;SDS011;62090;52.330;9.104;2023-04-15T04:32:31;24.53;;;17.20;;
3131;SDS011;62090;52.330;9.104;2023-04-15T04:35:02;22.83;;;17.83;;
3131;SDS011;62090;52.330;9.104;2023-04-15T04:37:33;26.00;;;17.93;;
3131;SDS011;62090;52.330;9.104;2023-04-15T04:40:05;28.13;;;17.80;;
3131;SDS011;62090;52.330;9.104;2023-04-15T04:42:37;24.53;;;18.30;;
3131;SDS011;62090;52.330;9.104;2023-04-15T04:45:11;29.70;;;19.13;;
3131;SDS011;62090;52.330;9.104;2023-04-15T04:47:42;23.47;;;18.47;;
3131;SDS011;62090;52.330;9.104;2023-04-15T04:50:13;23.30;;;18.40;;
3131;SDS011;62090;52.330;9.104;2023-04-15T04:52:44;25.27;;;19.00;;
3131;SDS011;62090;52.330;9.104;2023-04-15T04:55:15;23.60;;;17.60;;
3131;SDS011;62090;52.330;9.104;2023-04-15T04:57:46;25.40;;;19.20;;
3131;SDS011;62090;52.330;9.104;2023-04-15T05:00:20;27.20;;;19.80;;
3131;SDS011;62090;52.330;9.104;2023-04-15T05:02:51;28.73;;;20.03;;
3131;SDS011;62090;52.330;9.104;2023-04-15T05:05:22;28.30;;;20.93;;
3131;SDS011;62090;52.330;9.104;2023-04-15T05:07:53;26.17;;;19.77;;
3131;SDS011;62090;52.330;9.104;2023-04-15T05:10:24;33.03;;;20.13;;
3131;SDS011;62090;52.330;9.104;2023-04-15T05:12:55;26.00;;;20.23;;
3131;SDS011;62090;52.330;9.104;2023-04-15T05:15:29;33.57;;;21.40;;
3131;SDS011;62090;52.330;9.104;2023-04-15T05:18:01;26.60;;;19.50;;
3131;SDS011;62090;52.330;9.104;2023-04-15T05:20:32;29.93;;;20.00;;
3131;SDS011;62090;52.330;9.104;2023-04-15T05:23:04;26.47;;;18.93;;
3131;SDS011;62090;52.330;9.104;2023-04-15T05:25:35;30.50;;;19.50;;
3131;SDS011;62090;52.330;9.104;2023-04-15T05:28:05;27.37;;;19.90;;
3131;SDS011;62090;52.330;9.104;2023-04-15T05:30:39;28.20;;;19.70;;
3131;SDS011;62090;52.330;9.104;2023-04-15T05:33:10;30.77;;;20.60;;
3131;SDS011;62090;52.330;9.104;2023-04-15T05:35:41;26.67;;;19.17;;
3131;SDS011;62090;52.330;9.104;2023-04-15T05:38:13;29.63;;;20.90;;
3131;SDS011;62090;52.330;9.104;2023-04-15T05:40:44;27.20;;;19.13;;
3131;SDS011;62090;52.330;9.104;2023-04-15T05:43:15;26.57;;;19.77;;
3131;SDS011;62090;52.330;9.104;2023-04-15T05:45:48;26.70;;;19.47;;
3131;SDS011;62090;52.330;9.104;2023-04-15T05:48:20;30.93;;;20.07;;
3131;SDS011;62090;52.330;9.104;2023-04-15T05:50:50;27.90;;;19.60;;
3131;SDS011;62090;52.330;9.104;2023-04-15T05:53:22;29.00;;;20.90;;
3131;SDS011;62090;52.330;9.104;2023-04-15T05:55:52;25.97;;;18.73;;
3131;SDS011;62090;52.330;9.104;2023-04-15T05:58:23;25.63;;;18.60;;
3131;SDS011;62090;52.330;9.104;2023-04-15T06:00:57;24.13;;;18.63;;
3131;SDS011;62090;52.330;9.104;2023-04-15T06:03:28;25.80;;;18.70;;
3131;SDS011;62090;52.330;9.104;2023-04-15T06:06:00;29.10;;;18.97;;
3131;SDS011;62090;52.330;9.104;2023-04-15T06:08:31;28.70;;;21.03;;
3131;SDS011;62090;52.330;9.104;2023-04-15T06:11:02;31.20;;;22.00;;
3131;SDS011;62090;52.330;9.104;2023-04-15T06:13:33;28.37;;;20.10;;
3131;SDS011;62090;52.330;9.104;2023-04-15T06:16:07;33.40;;;21.90;;
3131;SDS011;62090;52.330;9.104;2023-04-15T06:18:38;30.03;;;20.13;;
3131;SDS011;62090;52.330;9.104;2023-04-15T06:21:09;32.70;;;22.27;;
3131;SDS011;62090;52.330;9.104;2023-04-15T06:23:40;31.40;;;21.07;;
3131;SDS011;62090;52.330;9.104;2023-04-15T06:26:11;31.30;;;21.60;;
3131;SDS011;62090;52.330;9.104;2023-04-15T06:28:42;27.67;;;19.80;;
3131;SDS011;62090;52.330;9.104;2023-04-15T06:31:16;33.80;;;22.07;;
3131;SDS011;62090;52.330;9.104;2023-04-15T06:33:47;38.10;;;21.70;;
3131;SDS011;62090;52.330;9.104;2023-04-15T06:36:18;32.80;;;21.97;;
3131;SDS011;62090;52.330;9.104;2023-04-15T06:38:49;33.33;;;22.40;;
3131;SDS011;62090;52.330;9.104;2023-04-15T06:41:20;35.67;;;21.70;;
3131;SDS011;62090;52.330;9.104;2023-04-15T06:43:51;33.63;;;22.97;;
3131;SDS011;62090;52.330;9.104;2023-04-15T06:46:25;33.17;;;21.23;;
3131;SDS011;62090;52.330;9.104;2023-04-15T06:48:56;30.90;;;22.60;;
3131;SDS011;62090;52.330;9.104;2023-04-15T06:51:27;31.80;;;20.63;;
3131;SDS011;62090;52.330;9.104;2023-04-15T06:53:59;30.17;;;20.90;;
3131;SDS011;62090;52.330;9.104;2023-04-15T06:56:32;34.77;;;22.10;;
3131;SDS011;62090;52.330;9.104;2023-04-15T06:59:03;31.80;;;21.63;;
3131;SDS011;62090;52.330;9.104;2023-04-15T07:01:37;31.27;;;22.33;;
3131;SDS011;62090;52.330;9.104;2023-04-15T07:04:09;34.37;;;21.37;;
3131;SDS011;62090;52.330;9.104;2023-04-15T07:06:40;30.50;;;21.07;;
3131;SDS011;62090;52.330;9.104;2023-04-15T07:09:11;35.50;;;24.33;;
3131;SDS011;62090;52.330;9.104;2023-04-15T07:11:42;34.90;;;23.27;;
3131;SDS011;62090;52.330;9.104;2023-04-15T07:14:13;43.03;;;25.73;;
3131;SDS011;62090;52.330;9.104;2023-04-15T07:16:47;38.77;;;25.60;;
3131;SDS011;62090;52.330;9.104;2023-04-15T07:19:18;39.37;;;25.53;;
3131;SDS011;62090;52.330;9.104;2023-04-15T07:21:50;40.27;;;26.07;;
3131;SDS011;62090;52.330;9.104;2023-04-15T07:24:21;41.00;;;26.83;;
3131;SDS011;62090;52.330;9.104;2023-04-15T07:26:55;40.03;;;25.60;;
3131;SDS011;62090;52.330;9.104;2023-04-15T07:29:30;46.70;;;27.63;;
3131;SDS011;62090;52.330;9.104;2023-04-15T07:32:04;38.10;;;26.67;;
3131;SDS011;62090;52.330;9.104;2023-04-15T07:34:37;36.33;;;25.30;;
3131;SDS011;62090;52.330;9.104;2023-04-15T07:37:08;37.63;;;25.00;;
3131;SDS011;62090;52.330;9.104;2023-04-15T07:39:39;35.83;;;24.13;;
3131;SDS011;62090;52.330;9.104;2023-04-15T07:42:10;36.07;;;23.60;;
3131;SDS011;62090;52.330;9.104;2023-04-15T07:44:42;39.20;;;25.07;;
3131;SDS011;62090;52.330;9.104;2023-04-15T07:47:15;39.10;;;24.27;;
3131;SDS011;62090;52.330;9.104;2023-04-15T07:49:46;35.13;;;23.80;;
3131;SDS011;62090;52.330;9.104;2023-04-15T07:52:18;37.80;;;24.63;;
3131;SDS011;62090;52.330;9.104;2023-04-15T07:54:49;35.00;;;24.60;;
3131;SDS011;62090;52.330;9.104;2023-04-15T07:57:20;39.77;;;24.17;;
3131;SDS011;62090;52.330;9.104;2023-04-15T07:59:51;35.20;;;23.50;;
3131;SDS011;62090;52.330;9.104;2023-04-15T08:02:24;37.47;;;24.67;;
3131;SDS011;62090;52.330;9.104;2023-04-15T08:04:55;40.23;;;25.53;;
3131;SDS011;62090;52.330;9.104;2023-04-15T08:07:29;34.00;;;24.10;;
3131;SDS011;62090;52.330;9.104;2023-04-15T08:10:00;37.37;;;24.17;;
3131;SDS011;62090;52.330;9.104;2023-04-15T08:12:31;36.07;;;24.87;;
3131;SDS011;62090;52.330;9.104;2023-04-15T08:15:03;34.50;;;24.73;;
3131;SDS011;62090;52.330;9.104;2023-04-15T08:17:37;29.00;;;22.23;;
3131;SDS011;62090;52.330;9.104;2023-04-15T08:20:09;41.63;;;25.83;;
3131;SDS011;62090;52.330;9.104;2023-04-15T08:22:41;37.63;;;25.13;;
3131;SDS011;62090;52.330;9.104;2023-04-15T08:25:13;36.20;;;24.27;;
3131;SDS011;62090;52.330;9.104;2023-04-15T08:27:44;34.93;;;24.67;;
3131;SDS011;62090;52.330;9.104;2023-04-15T08:30:15;34.97;;;23.90;;
3131;SDS011;62090;52.330;9.104;2023-04-15T08:32:49;30.83;;;22.70;;
3131;SDS011;62090;52.330;9.104;2023-04-15T08:35:20;34.33;;;24.03;;
3131;SDS011;62090;52.330;9.104;2023-04-15T08:37:51;37.37;;;26.30;;
3131;SDS011;62090;52.330;9.104;2023-04-15T08:40:22;33.90;;;23.50;;
3131;SDS011;62090;52.330;9.104;2023-04-15T08:43:03;34.47;;;24.23;;
3131;SDS011;62090;52.330;9.104;2023-04-15T08:45:36;34.20;;;25.00;;
3131;SDS011;62090;52.330;9.104;2023-04-15T08:48:11;32.37;;;22.73;;
3131;SDS011;62090;52.330;9.104;2023-04-15T08:50:45;34.07;;;22.10;;
3131;SDS011;62090;52.330;9.104;2023-04-15T08:53:17;34.67;;;23.90;;
3131;SDS011;62090;52.330;9.104;2023-04-15T08:55:50;34.47;;;24.43;;
3131;SDS011;62090;52.330;9.104;2023-04-15T08:58:22;30.87;;;22.40;;
3131;SDS011;62090;52.330;9.104;2023-04-15T09:00:54;33.50;;;22.57;;
3131;SDS011;62090;52.330;9.104;2023-04-15T09:03:29;34.30;;;22.23;;
3131;SDS011;62090;52.330;9.104;2023-04-15T09:06:02;32.17;;;21.57;;
3131;SDS011;62090;52.330;9.104;2023-04-15T09:08:34;33.77;;;23.97;;
3131;SDS011;62090;52.330;9.104;2023-04-15T09:11:05;35.03;;;20.40;;
3131;SDS011;62090;52.330;9.104;2023-04-15T09:13:36;31.63;;;22.43;;
3131;SDS011;62090;52.330;9.104;2023-04-15T09:16:07;31.67;;;23.10;;
3131;SDS011;62090;52.330;9.104;2023-04-15T09:18:41;35.73;;;23.00;;
3131;SDS011;62090;52.330;9.104;2023-04-15T09:21:14;28.73;;;21.63;;
3131;SDS011;62090;52.330;9.104;2023-04-15T09:23:55;31.00;;;22.70;;
3131;SDS011;62090;52.330;9.104;2023-04-15T09:26:31;30.60;;;21.80;;
3131;SDS011;62090;52.330;9.104;2023-04-15T09:29:04;33.00;;;23.20;;
3131;SDS011;62090;52.330;9.104;2023-04-15T09:31:36;30.43;;;21.10;;
3131;SDS011;62090;52.330;9.104;2023-04-15T09:34:10;27.17;;;21.90;;
3131;SDS011;62090;52.330;9.104;2023-04-15T09:36:51;28.70;;;20.97;;
3131;SDS011;62090;52.330;9.104;2023-04-15T09:39:23;28.80;;;21.37;;
3131;SDS011;62090;52.330;9.104;2023-04-15T09:42:04;28.47;;;21.80;;
3131;SDS011;62090;52.330;9.104;2023-04-15T09:44:36;27.23;;;19.73;;
3131;SDS011;62090;52.330;9.104;2023-04-15T09:47:07;28.10;;;21.30;;
3131;SDS011;62090;52.330;9.104;2023-04-15T09:49:42;30.30;;;21.30;;
3131;SDS011;62090;52.330;9.104;2023-04-15T09:52:25;24.60;;;19.67;;
3131;SDS011;62090;52.330;9.104;2023-04-15T09:54:57;23.90;;;18.70;;
3131;SDS011;62090;52.330;9.104;2023-04-15T09:57:33;23.40;;;18.60;;
3131;SDS011;62090;52.330;9.104;2023-04-15T10:00:05;22.80;;;17.87;;
3131;SDS011;62090;52.330;9.104;2023-04-15T10:02:38;21.87;;;17.73;;
3131;SDS011;62090;52.330;9.104;2023-04-15T10:05:14;25.37;;;17.80;;
3131;SDS011;62090;52.330;9.104;2023-04-15T10:07:46;20.63;;;16.97;;
3131;SDS011;62090;52.330;9.104;2023-04-15T10:10:17;21.37;;;17.47;;
3131;SDS011;62090;52.330;9.104;2023-04-15T10:12:49;21.53;;;16.23;;
3131;SDS011;62090;52.330;9.104;2023-04-15T10:15:22;20.60;;;16.70;;
3131;SDS011;62090;52.330;9.104;2023-04-15T10:17:55;20.20;;;16.07;;
3131;SDS011;62090;52.330;9.104;2023-04-15T10:20:29;18.53;;;14.77;;
3131;SDS011;62090;52.330;9.104;2023-04-15T10:23:00;17.33;;;14.27;;
3131;SDS011;62090;52.330;9.104;2023-04-15T10:25:34;16.90;;;14.10;;
3131;SDS011;62090;52.330;9.104;2023-04-15T10:28:06;17.03;;;13.47;;
3131;SDS011;62090;52.330;9.104;2023-04-15T10:30:37;15.53;;;13.40;;
3131;SDS011;62090;52.330;9.104;2023-04-15T10:33:09;16.13;;;13.47;;
3131;SDS011;62090;52.330;9.104;2023-04-15T10:35:43;15.23;;;13.20;;
3131;SDS011;62090;52.330;9.104;2023-04-15T10:38:31;13.43;;;11.73;;
3131;SDS011;62090;52.330;9.104;2023-04-15T10:41:15;16.40;;;12.93;;
3131;SDS011;62090;52.330;9.104;2023-04-15T10:43:49;13.63;;;11.70;;
3131;SDS011;62090;52.330;9.104;2023-04-15T10:46:21;14.10;;;10.93;;
3131;SDS011;62090;52.330;9.104;2023-04-15T10:48:54;13.27;;;10.87;;
3131;SDS011;62090;52.330;9.104;2023-04-15T10:51:30;12.63;;;11.30;;
3131;SDS011;62090;52.330;9.104;2023-04-15T10:54:03;11.50;;;10.30;;
3131;SDS011;62090;52.330;9.104;2023-04-15T10:56:40;12.57;;;10.60;;
3131;SDS011;62090;52.330;9.104;2023-04-15T10:59:11;11.40;;;10.23;;
3131;SDS011;62090;52.330;9.104;2023-04-15T11:01:49;12.10;;;10.53;;
3131;SDS011;62090;52.330;9.104;2023-04-15T11:07:39;11.77;;;10.20;;
3131;SDS011;62090;52.330;9.104;2023-04-15T11:13:27;10.70;;;9.60;;
3131;SDS011;62090;52.330;9.104;2023-04-15T11:16:00;13.48;;;10.98;;
3131;SDS011;62090;52.330;9.104;2023-04-15T11:18:32;12.77;;;11.20;;
3131;SDS011;62090;52.330;9.104;2023-04-15T11:21:05;11.60;;;10.40;;
3131;SDS011;62090;52.330;9.104;2023-04-15T11:23:39;18.30;;;10.40;;
3131;SDS011;62090;52.330;9.104;2023-04-15T11:26:13;13.40;;;11.70;;
3131;SDS011;62090;52.330;9.104;2023-04-15T11:28:45;13.90;;;11.07;;
3131;SDS011;62090;52.330;9.104;2023-04-15T11:31:16;13.77;;;11.33;;
3131;SDS011;62090;52.330;9.104;2023-04-15T11:33:53;11.50;;;10.30;;
3131;SDS011;62090;52.330;9.104;2023-04-15T11:36:27;12.50;;;10.70;;
3131;SDS011;62090;52.330;9.104;2023-04-15T11:39:01;14.70;;;12.30;;
3131;SDS011;62090;52.330;9.104;2023-04-15T11:41:32;12.73;;;11.00;;
3131;SDS011;62090;52.330;9.104;2023-04-15T11:44:14;14.10;;;11.77;;
3131;SDS011;62090;52.330;9.104;2023-04-15T11:46:46;15.57;;;12.33;;
3131;SDS011;62090;52.330;9.104;2023-04-15T11:49:26;14.73;;;12.87;;
3131;SDS011;62090;52.330;9.104;2023-04-15T11:51:59;14.37;;;12.30;;
3131;SDS011;62090;52.330;9.104;2023-04-15T11:54:31;15.77;;;13.33;;
3131;SDS011;62090;52.330;9.104;2023-04-15T11:57:03;18.50;;;14.30;;
3131;SDS011;62090;52.330;9.104;2023-04-15T11:59:40;16.97;;;13.80;;
3131;SDS011;62090;52.330;9.104;2023-04-15T12:02:11;20.50;;;14.30;;
3131;SDS011;62090;52.330;9.104;2023-04-15T12:04:41;19.20;;;15.17;;
3131;SDS011;62090;52.330;9.104;2023-04-15T12:07:12;19.80;;;14.37;;
3131;SDS011;62090;52.330;9.104;2023-04-15T12:09:44;18.80;;;15.00;;
3131;SDS011;62090;52.330;9.104;2023-04-15T12:12:25;17.70;;;14.73;;
3131;SDS011;62090;52.330;9.104;2023-04-15T12:14:56;19.30;;;15.57;;
3131;SDS011;62090;52.330;9.104;2023-04-15T12:17:26;26.03;;;17.77;;
3131;SDS011;62090;52.330;9.104;2023-04-15T12:20:19;20.80;;;16.50;;
3131;SDS011;62090;52.330;9.104;2023-04-15T12:22:50;23.60;;;17.70;;
3131;SDS011;62090;52.330;9.104;2023-04-15T12:25:34;28.27;;;18.00;;
3131;SDS011;62090;52.330;9.104;2023-04-15T12:28:09;25.43;;;17.97;;
3131;SDS011;62090;52.330;9.104;2023-04-15T12:30:47;25.60;;;19.20;;
3131;SDS011;62090;52.330;9.104;2023-04-15T12:33:18;26.27;;;17.87;;
3131;SDS011;62090;52.330;9.104;2023-04-15T12:35:48;27.03;;;20.60;;
3131;SDS011;62090;52.330;9.104;2023-04-15T12:38:17;28.37;;;20.13;;
3131;SDS011;62090;52.330;9.104;2023-04-15T12:40:50;25.80;;;18.67;;
3131;SDS011;62090;52.330;9.104;2023-04-15T12:43:19;26.50;;;19.20;;
3131;SDS011;62090;52.330;9.104;2023-04-15T12:45:49;28.47;;;20.80;;
3131;SDS011;62090;52.330;9.104;2023-04-15T12:48:19;33.13;;;21.90;;
3131;SDS011;62090;52.330;9.104;2023-04-15T12:50:49;31.80;;;22.20;;
3131;SDS011;62090;52.330;9.104;2023-04-15T12:53:19;29.67;;;21.50;;
3131;SDS011;62090;52.330;9.104;2023-04-15T12:55:51;33.40;;;23.00;;
3131;SDS011;62090;52.330;9.104;2023-04-15T12:58:21;30.87;;;21.43;;
3131;SDS011;62090;52.330;9.104;2023-04-15T13:00:51;32.17;;;23.67;;
3131;SDS011;62090;52.330;9.104;2023-04-15T13:03:21;37.80;;;25.07;;
3131;SDS011;62090;52.330;9.104;2023-04-15T13:05:51;33.90;;;24.43;;
3131;SDS011;62090;52.330;9.104;2023-04-15T13:08:21;36.77;;;25.90;;
3131;SDS011;62090;52.330;9.104;2023-04-15T13:10:53;35.27;;;24.10;;
3131;SDS011;62090;52.330;9.104;2023-04-15T13:13:23;35.07;;;25.50;;
3131;SDS011;62090;52.330;9.104;2023-04-15T13:15:53;44.53;;;26.30;;
3131;SDS011;62090;52.330;9.104;2023-04-15T13:18:23;37.30;;;26.20;;
3131;SDS011;62090;52.330;9.104;2023-04-15T13:20:53;44.20;;;26.83;;
3131;SDS011;62090;52.330;9.104;2023-04-15T13:23:23;37.37;;;25.77;;
3131;SDS011;62090;52.330;9.104;2023-04-15T13:25:56;45.70;;;28.60;;
3131;SDS011;62090;52.330;9.104;2023-04-15T13:28:26;40.83;;;26.80;;
3131;SDS011;62090;52.330;9.104;2023-04-15T13:30:59;40.73;;;26.90;;
3131;SDS011;62090;52.330;9.104;2023-04-15T13:33:29;43.23;;;26.90;;
3131;SDS011;62090;52.330;9.104;2023-04-15T13:35:59;48.23;;;29.87;;
3131;SDS011;62090;52.330;9.104;2023-04-15T13:38:29;45.57;;;28.00;;
3131;SDS011;62090;52.330;9.104;2023-04-15T13:41:02;45.17;;;28.23;;
3131;SDS011;62090;52.330;9.104;2023-04-15T13:43:32;55.73;;;31.60;;
3131;SDS011;62090;52.330;9.104;2023-04-15T13:46:03;49.30;;;29.40;;
3131;SDS011;62090;52.330;9.104;2023-04-15T13:48:33;51.40;;;31.13;;
3131;SDS011;62090;52.330;9.104;2023-04-15T13:51:03;54.60;;;31.60;;
3131;SDS011;62090;52.330;9.104;2023-04-15T13:53:36;56.13;;;33.30;;
3131;SDS011;62090;52.330;9.104;2023-04-15T13:56:09;54.30;;;30.37;;
3131;SDS011;62090;52.330;9.104;2023-04-15T13:58:39;57.10;;;31.37;;
3131;SDS011;62090;52.330;9.104;2023-04-15T14:01:09;54.00;;;32.77;;
3131;SDS011;62090;52.330;9.104;2023-04-15T14:03:39;55.50;;;30.73;;
3131;SDS011;62090;52.330;9.104;2023-04-15T14:06:09;62.70;;;33.53;;
3131;SDS011;62090;52.330;9.104;2023-04-15T14:08:38;64.73;;;33.37;;
3131;SDS011;62090;52.330;9.104;2023-04-15T14:11:11;71.67;;;34.10;;
3131;SDS011;62090;52.330;9.104;2023-04-15T14:13:41;68.50;;;34.13;;
3131;SDS011;62090;52.330;9.104;2023-04-15T14:16:11;74.10;;;34.53;;
3131;SDS011;62090;52.330;9.104;2023-04-15T14:18:42;76.40;;;37.67;;
3131;SDS011;62090;52.330;9.104;2023-04-15T14:21:13;69.73;;;36.00;;
3131;SDS011;62090;52.330;9.104;2023-04-15T14:23:44;75.87;;;38.10;;
3131;SDS011;62090;52.330;9.104;2023-04-15T14:26:16;73.30;;;36.20;;
3131;SDS011;62090;52.330;9.104;2023-04-15T14:28:47;81.63;;;39.00;;
3131;SDS011;62090;52.330;9.104;2023-04-15T14:31:17;81.63;;;39.90;;
3131;SDS011;62090;52.330;9.104;2023-04-15T14:33:47;83.60;;;39.40;;
3131;SDS011;62090;52.330;9.104;2023-04-15T14:36:17;89.63;;;40.20;;
3131;SDS011;62090;52.330;9.104;2023-04-15T14:38:47;84.90;;;39.97;;
3131;SDS011;62090;52.330;9.104;2023-04-15T14:41:19;81.23;;;39.40;;
3131;SDS011;62090;52.330;9.104;2023-04-15T14:43:49;90.37;;;41.33;;
3131;SDS011;62090;52.330;9.104;2023-04-15T14:46:19;89.97;;;40.97;;
3131;SDS011;62090;52.330;9.104;2023-04-15T14:48:49;96.03;;;41.37;;
3131;SDS011;62090;52.330;9.104;2023-04-15T14:51:19;99.10;;;43.67;;
3131;SDS011;62090;52.330;9.104;2023-04-15T14:53:49;97.43;;;44.20;;
3131;SDS011;62090;52.330;9.104;2023-04-15T14:56:21;100.17;;;44.57;;
3131;SDS011;62090;52.330;9.104;2023-04-15T14:58:51;95.50;;;44.40;;
3131;SDS011;62090;52.330;9.104;2023-04-15T15:01:21;96.83;;;45.43;;
3131;SDS011;62090;52.330;9.104;2023-04-15T15:03:51;87.97;;;44.87;;
3131;SDS011;62090;52.330;9.104;2023-04-15T15:06:21;101.13;;;45.63;;
3131;SDS011;62090;52.330;9.104;2023-04-15T15:08:51;105.17;;;46.73;;
3131;SDS011;62090;52.330;9.104;2023-04-15T15:11:23;94.90;;;46.57;;
3131;SDS011;62090;52.330;9.104;2023-04-15T15:13:53;92.90;;;44.90;;